createdAt,value
2018-12-13T00:01:09.438Z,11.80
2018-12-13T00:03:38.795Z,11.97
2018-12-13T00:06:08.116Z,11.35
2018-12-13T00:08:37.629Z,10.63
2018-12-13T00:11:07.007Z,10.88
2018-12-13T00:13:36.279Z,11.10
2018-12-13T00:16:05.520Z,11.70
2018-12-13T00:18:34.931Z,11.00
2018-12-13T00:21:04.334Z,11.73
2018-12-13T00:23:33.640Z,12.07
2018-12-13T00:26:03.156Z,11.33
2018-12-13T00:28:32.528Z,11.57
2018-12-13T00:31:01.852Z,11.63
2018-12-13T00:33:31.252Z,11.50
2018-12-13T00:36:00.664Z,11.48
2018-12-13T00:38:30.244Z,11.43
2018-12-13T00:40:59.752Z,11.03
2018-12-13T00:43:29.269Z,10.60
2018-12-13T00:45:58.660Z,10.60
2018-12-13T00:48:27.977Z,11.22
2018-12-13T00:50:57.275Z,11.88
2018-12-13T00:53:26.556Z,10.68
2018-12-13T00:55:55.801Z,11.00
2018-12-13T00:58:25.264Z,11.08
2018-12-13T01:00:56.687Z,11.15
2018-12-13T01:03:26.043Z,10.50
2018-12-13T01:05:55.350Z,11.05
2018-12-13T01:08:25.112Z,10.70
2018-12-13T01:10:54.347Z,9.88
2018-12-13T01:13:23.849Z,10.90
2018-12-13T01:15:53.280Z,10.20
2018-12-13T01:18:22.521Z,9.78
2018-12-13T01:20:51.787Z,10.63
2018-12-13T01:23:21.255Z,9.78
2018-12-13T01:25:50.582Z,10.30
2018-12-13T01:28:19.878Z,10.13
2018-12-13T01:30:49.281Z,10.15
2018-12-13T01:33:18.587Z,9.68
2018-12-13T01:35:48.063Z,10.15
2018-12-13T01:38:17.391Z,10.35
2018-12-13T01:40:46.685Z,9.95
2018-12-13T01:43:15.890Z,9.83
2018-12-13T01:45:45.175Z,9.88
2018-12-13T01:48:14.499Z,9.55
2018-12-13T01:50:43.936Z,9.68
2018-12-13T01:53:13.291Z,9.50
2018-12-13T01:55:42.584Z,8.58
2018-12-13T01:58:12.009Z,9.60
2018-12-13T02:00:41.398Z,9.38
2018-12-13T02:03:10.699Z,9.70
2018-12-13T02:05:40.099Z,9.33
2018-12-13T02:08:09.412Z,9.20
2018-12-13T02:10:38.926Z,10.28
2018-12-13T02:13:08.404Z,10.20
2018-12-13T02:15:37.738Z,9.48
2018-12-13T02:18:07.129Z,9.88
2018-12-13T02:20:36.430Z,9.65
2018-12-13T02:23:05.829Z,10.90
2018-12-13T02:25:35.131Z,10.23
2018-12-13T02:28:04.342Z,9.48
2018-12-13T02:30:33.626Z,9.78
2018-12-13T02:33:02.968Z,9.08
2018-12-13T02:35:32.140Z,8.80
2018-12-13T02:38:01.521Z,9.93
2018-12-13T02:40:30.840Z,8.85
2018-12-13T02:43:00.248Z,8.85
2018-12-13T02:45:29.560Z,9.03
2018-12-13T02:47:58.960Z,8.83
2018-12-13T02:50:28.255Z,8.53
2018-12-13T02:52:57.561Z,8.33
2018-12-13T02:55:26.960Z,8.15
2018-12-13T02:57:56.366Z,8.00
2018-12-13T03:00:25.751Z,8.35
2018-12-13T03:02:55.069Z,8.35
2018-12-13T03:05:24.356Z,8.43
2018-12-13T03:07:53.652Z,8.13
2018-12-13T03:10:23.055Z,7.95
2018-12-13T03:12:52.456Z,7.42
2018-12-13T03:15:21.956Z,8.65
2018-12-13T03:17:51.278Z,8.20
2018-12-13T03:20:20.555Z,8.25
2018-12-13T03:22:49.770Z,7.22
2018-12-13T03:25:18.950Z,7.58
2018-12-13T03:27:48.175Z,8.03
2018-12-13T03:30:17.481Z,7.65
2018-12-13T03:32:46.682Z,7.53
2018-12-13T03:35:15.981Z,7.45
2018-12-13T03:37:45.267Z,7.92
2018-12-13T03:40:14.667Z,6.75
2018-12-13T03:42:44.075Z,7.42
2018-12-13T03:45:13.391Z,7.35
2018-12-13T03:47:42.775Z,7.30
2018-12-13T03:50:11.977Z,6.95
2018-12-13T03:52:41.292Z,6.67
2018-12-13T03:55:10.687Z,7.47
2018-12-13T03:57:39.884Z,7.30
2018-12-13T04:00:09.096Z,6.60
2018-12-13T04:02:38.383Z,6.70
2018-12-13T04:05:07.690Z,6.72
2018-12-13T04:07:37.183Z,6.47
2018-12-13T04:10:06.651Z,6.72
2018-12-13T04:12:35.902Z,6.65
2018-12-13T04:15:05.417Z,5.95
2018-12-13T04:17:34.808Z,6.40
2018-12-13T04:20:04.202Z,6.28
2018-12-13T04:22:33.320Z,6.30
2018-12-13T04:25:02.705Z,7.00
2018-12-13T04:27:31.696Z,5.85
2018-12-13T04:30:00.913Z,5.97
2018-12-13T04:32:30.211Z,6.20
2018-12-13T04:34:59.521Z,5.62
2018-12-13T04:37:35.124Z,5.50
2018-12-13T04:40:00.202Z,5.20
2018-12-13T04:42:29.560Z,6.08
2018-12-13T04:44:58.864Z,5.72
2018-12-13T04:47:28.047Z,6.15
2018-12-13T04:49:57.248Z,5.75
2018-12-13T04:52:26.465Z,5.97
2018-12-13T04:54:55.812Z,5.72
2018-12-13T04:57:25.160Z,6.03
2018-12-13T04:59:54.551Z,6.05
2018-12-13T05:02:23.891Z,6.20
2018-12-13T05:04:53.271Z,6.08
2018-12-13T05:07:22.568Z,6.00
2018-12-13T05:09:51.874Z,6.25
2018-12-13T05:12:21.389Z,7.03
2018-12-13T05:14:50.637Z,6.75
2018-12-13T05:17:19.765Z,6.72
2018-12-13T05:19:49.376Z,6.80
2018-12-13T05:22:18.584Z,7.05
2018-12-13T05:24:47.863Z,5.75
2018-12-13T05:27:17.220Z,6.92
2018-12-13T05:29:46.414Z,6.40
2018-12-13T05:32:15.879Z,6.62
2018-12-13T05:34:44.991Z,6.30
2018-12-13T05:37:14.495Z,6.22
2018-12-13T05:39:43.787Z,6.25
2018-12-13T05:42:12.892Z,6.35
2018-12-13T05:44:42.163Z,5.47
2018-12-13T05:47:11.485Z,6.28
2018-12-13T05:49:40.604Z,5.72
2018-12-13T05:52:09.783Z,5.87
2018-12-13T05:54:39.093Z,6.37
2018-12-13T05:57:08.283Z,5.80
2018-12-13T05:59:37.498Z,6.65
2018-12-13T06:02:06.608Z,5.70
2018-12-13T06:04:35.901Z,5.70
2018-12-13T06:07:05.137Z,6.42
2018-12-13T06:09:34.375Z,6.30
2018-12-13T06:12:03.803Z,6.65
2018-12-13T06:14:33.093Z,6.50
2018-12-13T06:17:02.485Z,9.10
2018-12-13T06:19:31.718Z,8.40
2018-12-13T06:22:00.879Z,8.85
2018-12-13T06:24:30.098Z,8.70
2018-12-13T06:26:59.393Z,7.97
2018-12-13T06:29:28.604Z,9.60
2018-12-13T06:31:57.887Z,13.88
2018-12-13T06:34:27.136Z,19.82
2018-12-13T06:36:56.395Z,19.55
2018-12-13T06:39:25.919Z,18.75
2018-12-13T06:41:55.200Z,22.87
2018-12-13T06:44:24.606Z,21.75
2018-12-13T06:46:54.207Z,20.08
2018-12-13T06:49:23.521Z,20.55
2018-12-13T06:51:52.822Z,24.02
2018-12-13T06:54:22.163Z,22.82
2018-12-13T06:56:51.515Z,23.87
2018-12-13T06:59:20.916Z,25.82
2018-12-13T07:01:50.316Z,28.87
2018-12-13T07:04:19.614Z,32.55
2018-12-13T07:06:48.920Z,41.75
2018-12-13T07:09:18.240Z,44.53
2018-12-13T07:11:47.531Z,35.08
2018-12-13T07:14:16.836Z,33.98
2018-12-13T07:16:46.135Z,31.15
2018-12-13T07:19:15.328Z,34.85
2018-12-13T07:21:44.534Z,32.60
2018-12-13T07:24:13.840Z,34.60
2018-12-13T07:26:43.147Z,36.08
2018-12-13T07:29:12.476Z,37.55
2018-12-13T07:31:42.108Z,34.20
2018-12-13T07:34:11.455Z,52.90
2018-12-13T07:36:40.880Z,42.35
2018-12-13T07:39:10.383Z,44.65
2018-12-13T07:41:39.701Z,63.05
2018-12-13T07:44:09.156Z,63.65
2018-12-13T07:46:38.564Z,73.65
2018-12-13T07:49:07.976Z,73.30
2018-12-13T07:51:37.376Z,77.32
2018-12-13T07:54:06.689Z,77.45
2018-12-13T07:56:35.980Z,78.75
2018-12-13T07:59:05.496Z,80.72
2018-12-13T08:01:34.893Z,66.57
2018-12-13T08:04:04.296Z,78.67
2018-12-13T08:06:33.607Z,74.97
2018-12-13T08:09:03.255Z,67.67
2018-12-13T08:11:32.587Z,74.10
2018-12-13T08:14:02.047Z,79.25
2018-12-13T08:16:31.423Z,84.52
2018-12-13T08:19:00.733Z,84.87
2018-12-13T08:21:30.007Z,84.65
2018-12-13T08:23:59.275Z,80.00
2018-12-13T08:26:28.506Z,90.12
2018-12-13T08:28:57.916Z,91.78
2018-12-13T08:31:27.343Z,95.30
2018-12-13T08:33:56.557Z,92.10
2018-12-13T08:36:25.843Z,91.00
2018-12-13T08:38:55.337Z,90.87
2018-12-13T08:41:24.680Z,93.67
2018-12-13T08:43:54.011Z,90.67
2018-12-13T08:46:23.451Z,100.07
2018-12-13T08:48:53.016Z,99.10
2018-12-13T08:51:22.365Z,98.55
2018-12-13T08:53:51.755Z,98.42
2018-12-13T08:56:21.167Z,97.33
2018-12-13T08:58:50.456Z,107.65
2018-12-13T09:01:19.882Z,121.45
2018-12-13T09:03:49.233Z,125.45
2018-12-13T09:06:18.474Z,120.87
2018-12-13T09:08:47.735Z,127.17
2018-12-13T09:11:17.052Z,131.47
2018-12-13T09:13:46.459Z,128.30
2018-12-13T09:16:15.781Z,138.28
2018-12-13T09:18:45.111Z,125.00
2018-12-13T09:21:14.409Z,137.47
2018-12-13T09:23:43.672Z,130.80
2018-12-13T09:26:13.091Z,146.55
2018-12-13T09:28:42.455Z,133.05
2018-12-13T09:31:11.604Z,147.62
2018-12-13T09:33:41.082Z,115.80
2018-12-13T09:36:10.588Z,147.85
2018-12-13T09:38:40.111Z,150.50
2018-12-13T09:41:09.624Z,152.02
2018-12-13T09:43:38.913Z,153.50
2018-12-13T09:46:08.115Z,154.87
2018-12-13T09:48:37.412Z,158.03
2018-12-13T09:51:06.824Z,153.20
2018-12-13T09:53:36.202Z,148.95
2018-12-13T09:56:05.512Z,152.10
2018-12-13T09:58:34.821Z,124.80
2018-12-13T10:01:04.312Z,121.17
2018-12-13T10:03:33.529Z,129.40
2018-12-13T10:06:02.735Z,128.35
2018-12-13T10:08:31.928Z,115.52
2018-12-13T10:11:01.128Z,107.63
2018-12-13T10:13:30.619Z,135.40
2018-12-13T10:15:59.829Z,137.05
2018-12-13T10:18:29.216Z,120.62
2018-12-13T10:20:58.424Z,135.22
2018-12-13T10:23:27.824Z,109.78
2018-12-13T10:25:59.638Z,111.37
2018-12-13T10:28:28.386Z,132.32
2018-12-13T10:30:57.785Z,127.67
2018-12-13T10:33:27.072Z,132.00
2018-12-13T10:35:56.392Z,124.90
2018-12-13T10:38:25.802Z,126.33
2018-12-13T10:40:54.996Z,126.97
2018-12-13T10:43:24.185Z,131.80
2018-12-13T10:45:53.491Z,137.68
2018-12-13T10:48:22.780Z,140.90
2018-12-13T10:50:52.009Z,140.52
2018-12-13T10:53:21.392Z,144.37
2018-12-13T10:55:50.688Z,146.65
2018-12-13T10:58:19.983Z,144.35
2018-12-13T11:01:58.226Z,146.10
2018-12-13T11:04:27.580Z,145.12
2018-12-13T11:06:56.792Z,146.02
2018-12-13T11:09:26.100Z,150.97
2018-12-13T11:11:55.448Z,151.22
2018-12-13T11:14:24.836Z,153.57
2018-12-13T11:16:54.128Z,153.47
2018-12-13T11:19:23.404Z,156.60
2018-12-13T11:21:52.793Z,156.02
2018-12-13T11:24:22.078Z,164.35
2018-12-13T11:26:51.449Z,163.45
2018-12-13T11:29:34.480Z,158.70
2018-12-13T11:32:03.968Z,164.75
2018-12-13T11:34:33.385Z,162.50
2018-12-13T11:37:02.677Z,171.20
2018-12-13T11:39:31.976Z,83.42
2018-12-13T11:42:01.154Z,88.45
2018-12-13T11:44:30.463Z,127.02
2018-12-13T11:46:59.963Z,127.05
2018-12-13T11:49:29.347Z,147.47
2018-12-13T11:51:58.642Z,122.22
2018-12-13T11:54:39.994Z,144.13
2018-12-13T11:57:09.256Z,141.35
2018-12-13T11:59:38.771Z,138.28
2018-12-13T12:02:08.191Z,140.05
2018-12-13T12:04:37.378Z,143.97
2018-12-13T12:07:06.683Z,160.97
2018-12-13T12:09:36.164Z,171.43
2018-12-13T12:12:05.589Z,176.00
2018-12-13T12:14:34.887Z,172.28
2018-12-13T12:17:04.310Z,165.07
2018-12-13T12:19:33.572Z,175.85
2018-12-13T12:22:02.892Z,186.12
2018-12-13T12:24:32.270Z,144.17
2018-12-13T12:27:01.590Z,109.35
2018-12-13T12:29:31.023Z,171.57
2018-12-13T12:32:00.303Z,167.68
2018-12-13T12:34:29.585Z,172.22
2018-12-13T12:36:58.892Z,158.55
2018-12-13T12:39:28.307Z,120.57
2018-12-13T12:41:57.494Z,145.47
2018-12-13T12:44:30.736Z,132.30
2018-12-13T12:47:00.115Z,111.10
2018-12-13T12:49:29.408Z,113.90
2018-12-13T12:51:58.716Z,140.60
2018-12-13T12:54:27.895Z,146.45
2018-12-13T12:56:57.413Z,149.20
2018-12-13T12:59:26.783Z,156.05
2018-12-13T13:01:56.117Z,152.07
2018-12-13T13:04:25.510Z,146.55
2018-12-13T13:06:54.913Z,136.12
2018-12-13T13:09:25.221Z,127.42
2018-12-13T13:11:54.755Z,121.53
2018-12-13T13:14:24.031Z,117.47
2018-12-13T13:16:53.239Z,124.10
2018-12-13T13:19:22.647Z,122.87
2018-12-13T13:21:51.853Z,119.35
2018-12-13T13:24:21.258Z,118.17
2018-12-13T13:26:50.763Z,115.52
2018-12-13T13:29:20.152Z,112.25
2018-12-13T13:31:49.327Z,110.12
2018-12-13T13:34:18.651Z,108.83
2018-12-13T13:36:47.592Z,103.87
2018-12-13T13:39:16.955Z,97.08
2018-12-13T13:41:46.148Z,98.17
2018-12-13T13:44:15.816Z,95.03
2018-12-13T13:46:45.216Z,95.32
2018-12-13T13:49:14.555Z,93.52
2018-12-13T13:51:43.864Z,93.58
2018-12-13T13:54:13.215Z,92.45
2018-12-13T13:56:42.607Z,97.22
2018-12-13T13:59:11.901Z,94.55
2018-12-13T14:01:41.181Z,92.60
2018-12-13T14:04:10.492Z,85.47
2018-12-13T14:06:39.825Z,88.03
2018-12-13T14:09:09.099Z,87.65
2018-12-13T14:11:38.488Z,88.60
2018-12-13T14:14:07.884Z,87.65
2018-12-13T14:16:37.235Z,84.90
2018-12-13T14:19:06.492Z,82.22
2018-12-13T14:21:35.836Z,82.08
2018-12-13T14:24:05.101Z,82.33
2018-12-13T14:26:34.295Z,82.05
2018-12-13T14:29:03.700Z,80.95
2018-12-13T14:31:34.608Z,82.37
2018-12-13T14:34:03.930Z,80.17
2018-12-13T14:36:33.246Z,83.67
2018-12-13T14:39:02.701Z,79.92
2018-12-13T14:41:31.951Z,79.27
2018-12-13T14:44:01.247Z,78.25
2018-12-13T14:46:30.559Z,79.25
2018-12-13T14:48:59.847Z,78.87
2018-12-13T14:51:29.263Z,78.22
2018-12-13T14:53:58.555Z,77.27
2018-12-13T14:56:27.844Z,77.47
2018-12-13T14:58:57.060Z,76.37
2018-12-13T15:01:26.877Z,76.70
2018-12-13T15:03:56.468Z,77.67
2018-12-13T15:06:25.859Z,76.55
2018-12-13T15:08:55.197Z,74.75
2018-12-13T15:11:24.575Z,74.05
2018-12-13T15:13:53.905Z,77.32
2018-12-13T15:16:23.187Z,75.22
2018-12-13T15:18:52.391Z,73.35
2018-12-13T15:21:21.693Z,72.80
2018-12-13T15:23:50.913Z,71.75
2018-12-13T15:26:20.379Z,70.37
2018-12-13T15:28:49.703Z,69.53
2018-12-13T15:31:19.096Z,68.40
2018-12-13T15:33:48.505Z,71.02
2018-12-13T15:36:17.803Z,66.12
2018-12-13T15:38:47.199Z,66.28
2018-12-13T15:41:16.406Z,65.47
2018-12-13T15:43:45.647Z,66.77
2018-12-13T15:46:14.800Z,67.92
2018-12-13T15:48:44.200Z,65.78
2018-12-13T15:51:13.591Z,61.85
2018-12-13T15:53:42.905Z,63.95
2018-12-13T15:56:12.295Z,61.68
2018-12-13T15:58:41.518Z,61.65
2018-12-13T16:01:10.911Z,64.65
2018-12-13T16:03:40.231Z,61.33
2018-12-13T16:06:09.608Z,62.00
2018-12-13T16:08:38.892Z,60.43
2018-12-13T16:11:08.102Z,60.23
2018-12-13T16:13:37.335Z,59.10
2018-12-13T16:16:07.426Z,58.75
2018-12-13T16:18:36.700Z,59.05
2018-12-13T16:21:06.050Z,58.78
2018-12-13T16:23:35.444Z,57.27
2018-12-13T16:26:04.731Z,57.98
2018-12-13T16:28:34.048Z,56.48
2018-12-13T16:31:03.240Z,56.60
2018-12-13T16:33:32.457Z,62.95
2018-12-13T16:36:01.880Z,57.65
2018-12-13T16:38:31.145Z,56.35
2018-12-13T16:41:00.357Z,56.00
2018-12-13T16:43:29.651Z,57.33
2018-12-13T16:45:58.855Z,56.28
2018-12-13T16:48:28.202Z,53.68
2018-12-13T16:50:57.554Z,54.67
2018-12-13T16:53:26.971Z,53.92
2018-12-13T16:55:56.360Z,54.13
2018-12-13T16:58:25.471Z,53.33
2018-12-13T17:00:54.863Z,54.55
2018-12-13T17:03:36.652Z,56.30
2018-12-13T17:06:06.800Z,56.23
2018-12-13T17:08:36.080Z,52.17
2018-12-13T17:11:05.592Z,54.03
2018-12-13T17:13:34.822Z,54.08
2018-12-13T17:16:03.989Z,54.23
2018-12-13T17:18:33.314Z,53.55
2018-12-13T17:21:02.854Z,53.60
2018-12-13T17:23:32.395Z,53.33
2018-12-13T17:26:03.242Z,52.58
2018-12-13T17:28:33.983Z,51.85
2018-12-13T17:31:03.493Z,50.92
2018-12-13T17:33:32.889Z,49.38
2018-12-13T17:36:02.273Z,50.60
2018-12-13T17:38:31.589Z,48.00
2018-12-13T17:41:00.978Z,47.93
2018-12-13T17:43:30.179Z,47.48
2018-12-13T17:45:59.905Z,46.80
2018-12-13T17:48:29.102Z,47.17
2018-12-13T17:50:58.306Z,55.60
2018-12-13T17:53:28.007Z,51.95
2018-12-13T17:55:57.708Z,53.63
2018-12-13T17:58:27.020Z,53.15
2018-12-13T18:00:56.319Z,57.98
2018-12-13T18:03:25.820Z,55.20
2018-12-13T18:05:55.014Z,54.98
2018-12-13T18:08:25.121Z,57.83
2018-12-13T18:10:55.140Z,56.68
2018-12-13T18:13:24.567Z,57.93
2018-12-13T18:15:54.065Z,54.10
2018-12-13T18:18:23.283Z,55.40
2018-12-13T18:20:52.581Z,58.98
2018-12-13T18:23:22.863Z,60.45
2018-12-13T18:25:52.094Z,57.00
2018-12-13T18:28:21.298Z,55.52
2018-12-13T18:30:50.906Z,55.38
2018-12-13T18:33:20.476Z,54.23
2018-12-13T18:35:49.941Z,54.90
2018-12-13T18:38:20.446Z,52.95
2018-12-13T18:40:50.274Z,52.83
2018-12-13T18:43:20.341Z,49.93
2018-12-13T18:45:49.695Z,48.48
2018-12-13T18:48:19.239Z,49.53
2018-12-13T18:50:49.859Z,49.45
2018-12-13T18:53:19.376Z,48.78
2018-12-13T18:55:49.574Z,48.45
2018-12-13T18:58:19.067Z,52.33
2018-12-13T19:00:48.447Z,53.73
2018-12-13T19:03:18.085Z,55.17
2018-12-13T19:05:47.790Z,55.10
2018-12-13T19:08:17.249Z,54.35
2018-12-13T19:10:46.961Z,58.45
2018-12-13T19:13:16.260Z,62.98
2018-12-13T19:15:45.921Z,64.10
2018-12-13T19:18:15.318Z,67.50
2018-12-13T19:20:45.621Z,67.95
2018-12-13T19:23:15.661Z,65.25
2018-12-13T19:25:46.405Z,65.95
2018-12-13T19:28:15.749Z,69.30
2018-12-13T19:30:45.184Z,68.97
2018-12-13T19:33:14.464Z,67.30
2018-12-13T19:35:44.711Z,66.20
2018-12-13T19:38:14.155Z,65.70
2018-12-13T19:40:48.360Z,63.60
2018-12-13T19:43:15.346Z,63.60
2018-12-13T19:45:45.293Z,63.35
2018-12-13T19:48:15.053Z,66.30
2018-12-13T19:50:45.247Z,62.48
2018-12-13T19:53:14.801Z,62.23
2018-12-13T19:55:44.352Z,60.52
2018-12-13T19:58:13.548Z,62.43
2018-12-13T20:00:43.300Z,58.13
2018-12-13T20:03:13.060Z,60.28
2018-12-13T20:05:42.504Z,61.68
2018-12-13T20:08:11.991Z,59.77
2018-12-13T20:10:41.748Z,57.55
2018-12-13T20:13:12.245Z,59.33
2018-12-13T20:15:41.724Z,56.88
2018-12-13T20:18:12.655Z,55.85
2018-12-13T20:20:42.188Z,52.93
2018-12-13T20:23:11.404Z,51.23
2018-12-13T20:25:41.068Z,51.70
2018-12-13T20:28:11.418Z,49.93
2018-12-13T20:30:41.096Z,49.55
2018-12-13T20:33:10.248Z,46.92
2018-12-13T20:35:39.591Z,47.55
2018-12-13T20:38:08.917Z,46.28
2018-12-13T20:40:38.332Z,48.05
2018-12-13T20:43:07.623Z,47.65
2018-12-13T20:45:36.932Z,46.13
2018-12-13T20:48:06.319Z,45.23
2018-12-13T20:50:35.539Z,44.67
2018-12-13T20:53:04.860Z,43.42
2018-12-13T20:55:34.588Z,45.58
2018-12-13T20:58:03.940Z,43.58
2018-12-13T21:00:33.248Z,42.90
2018-12-13T21:03:03.147Z,41.85
2018-12-13T21:05:32.567Z,41.13
2018-12-13T21:08:06.647Z,39.85
2018-12-13T21:10:36.184Z,42.03
2018-12-13T21:13:05.507Z,40.78
2018-12-13T21:15:34.804Z,39.40
2018-12-13T21:18:04.275Z,40.83
2018-12-13T21:20:33.693Z,41.25
2018-12-13T21:23:02.980Z,39.40
2018-12-13T21:25:32.310Z,39.23
2018-12-13T21:28:01.700Z,40.65
2018-12-13T21:30:31.028Z,39.85
2018-12-13T21:33:00.623Z,38.78
2018-12-13T21:35:30.220Z,39.65
2018-12-13T21:37:59.645Z,39.40
2018-12-13T21:40:28.925Z,39.23
2018-12-13T21:42:58.239Z,38.55
2018-12-13T21:45:27.636Z,37.75
2018-12-13T21:47:57.137Z,39.33
2018-12-13T21:50:26.635Z,37.65
2018-12-13T21:52:56.035Z,36.80
2018-12-13T21:55:25.247Z,37.15
2018-12-13T21:57:54.752Z,37.67
2018-12-13T22:00:24.147Z,36.60
2018-12-13T22:02:53.484Z,36.00
2018-12-13T22:05:22.871Z,35.70
2018-12-13T22:07:52.174Z,36.35
2018-12-13T22:10:21.571Z,35.58
2018-12-13T22:12:50.883Z,35.68
2018-12-13T22:15:20.204Z,35.95
2018-12-13T22:17:49.667Z,34.67
2018-12-13T22:20:18.989Z,35.65
2018-12-13T22:22:48.288Z,35.28
2018-12-13T22:25:17.609Z,35.23
2018-12-13T22:27:47.076Z,34.73
2018-12-13T22:30:16.497Z,34.35
2018-12-13T22:32:45.990Z,33.55
2018-12-13T22:35:15.399Z,33.25
2018-12-13T22:37:44.803Z,33.28
2018-12-13T22:40:14.125Z,32.10
2018-12-13T22:42:43.344Z,33.40
2018-12-13T22:45:12.807Z,32.08
2018-12-13T22:47:42.228Z,33.60
2018-12-13T22:50:11.541Z,31.42
2018-12-13T22:52:40.927Z,32.73
2018-12-13T22:55:10.256Z,30.57
2018-12-13T22:57:39.724Z,31.25
2018-12-13T23:00:10.636Z,31.55
2018-12-13T23:02:39.980Z,29.57
2018-12-13T23:05:09.296Z,30.57
2018-12-13T23:07:38.562Z,29.98
2018-12-13T23:10:07.891Z,30.00
2018-12-13T23:12:37.379Z,30.60
2018-12-13T23:15:06.780Z,30.32
2018-12-13T23:17:36.224Z,30.32
2018-12-13T23:20:05.534Z,30.30
2018-12-13T23:22:34.821Z,29.35
2018-12-13T23:25:04.284Z,28.83
2018-12-13T23:27:33.719Z,29.55
2018-12-13T23:30:03.140Z,27.95
2018-12-13T23:32:32.441Z,28.55
2018-12-13T23:35:01.732Z,27.80
2018-12-13T23:37:31.201Z,27.13
2018-12-13T23:40:00.711Z,27.98
2018-12-13T23:42:30.114Z,27.17
2018-12-13T23:44:59.559Z,27.00
2018-12-13T23:47:28.858Z,27.52
2018-12-13T23:49:58.321Z,27.00
2018-12-13T23:52:27.823Z,26.82
2018-12-13T23:54:57.297Z,25.27
2018-12-13T23:57:26.643Z,27.20
2018-12-13T23:59:56.060Z,25.50
